createdAt,value
2019-03-18T09:50:49.648Z,1.10
2019-03-18T09:53:16.410Z,0.80
2019-03-18T09:55:43.230Z,0.80
2019-03-18T09:58:09.825Z,0.60
2019-03-18T10:00:36.675Z,0.62
2019-03-18T10:03:03.334Z,0.90
2019-03-18T10:05:29.966Z,0.80
2019-03-18T10:07:56.621Z,0.90
2019-03-18T10:10:23.522Z,0.68
2019-03-18T10:12:50.272Z,0.78
2019-03-18T10:15:16.817Z,0.70
2019-03-18T10:17:43.358Z,0.60
2019-03-18T10:20:10.059Z,0.60
2019-03-18T10:22:36.622Z,0.62
2019-03-18T10:25:04.290Z,0.50
2019-03-18T10:27:31.362Z,0.72
2019-03-18T10:29:57.878Z,0.50
2019-03-18T10:32:24.497Z,0.57
2019-03-18T10:34:51.141Z,0.68
2019-03-18T10:37:17.864Z,0.55
2019-03-18T10:39:44.638Z,0.80
2019-03-18T10:42:11.217Z,0.80
2019-03-18T10:44:37.997Z,0.60
2019-03-18T10:47:04.739Z,1.12
2019-03-18T10:49:31.428Z,0.60
2019-03-18T10:51:58.278Z,0.47
2019-03-18T10:54:30.846Z,1.00
2019-03-18T10:56:53.538Z,0.70
2019-03-18T10:59:20.198Z,1.10
2019-03-18T11:01:46.839Z,0.57
2019-03-18T11:04:13.419Z,0.60
2019-03-18T11:06:40.057Z,0.40
2019-03-18T11:09:06.598Z,0.72
2019-03-18T11:11:33.281Z,0.60
2019-03-18T11:13:59.858Z,0.93
2019-03-18T11:16:26.518Z,0.82
2019-03-18T11:18:53.279Z,0.60
2019-03-18T11:21:19.915Z,0.60
2019-03-18T11:23:47.097Z,0.65
2019-03-18T11:26:13.851Z,0.75
2019-03-18T11:28:40.730Z,0.65
2019-03-18T11:31:07.392Z,0.90
2019-03-18T11:33:34.252Z,0.60
2019-03-18T11:36:00.910Z,0.80
2019-03-18T11:38:27.489Z,0.70
2019-03-18T11:40:54.132Z,1.02
2019-03-18T11:43:20.797Z,1.00
2019-03-18T11:45:47.512Z,0.95
2019-03-18T11:48:14.116Z,1.17
2019-03-18T11:50:41.525Z,0.80
2019-03-18T11:53:14.132Z,0.90
2019-03-18T11:55:37.157Z,0.72
2019-03-18T11:58:03.930Z,0.75
2019-03-18T12:00:30.775Z,0.45
2019-03-18T12:02:57.661Z,0.60
2019-03-18T12:05:24.435Z,0.60
2019-03-18T12:07:51.178Z,0.50
2019-03-18T12:10:18.004Z,0.85
2019-03-18T12:12:44.814Z,0.70
2019-03-18T12:15:11.675Z,0.70
2019-03-18T12:17:38.536Z,0.42
2019-03-18T12:20:05.329Z,0.40
2019-03-18T12:22:32.091Z,0.40
2019-03-18T12:24:58.722Z,0.50
2019-03-18T12:27:25.283Z,0.50
2019-03-18T12:29:52.147Z,0.37
2019-03-18T12:32:18.911Z,0.45
2019-03-18T12:34:45.567Z,0.45
2019-03-18T12:37:12.439Z,0.40
2019-03-18T12:39:39.123Z,0.40
2019-03-18T12:42:05.962Z,0.35
2019-03-18T12:44:32.629Z,0.70
2019-03-18T12:46:59.284Z,0.50
2019-03-18T12:49:25.884Z,0.60
2019-03-18T12:51:52.601Z,0.50
2019-03-18T12:54:19.304Z,0.72
2019-03-18T12:56:46.055Z,0.60
2019-03-18T12:59:12.615Z,0.40
2019-03-18T13:01:39.759Z,0.50
2019-03-18T13:04:06.419Z,0.75
2019-03-18T13:06:33.664Z,0.50
2019-03-18T13:09:00.956Z,0.40
2019-03-18T13:11:27.713Z,0.68
2019-03-18T13:13:54.476Z,0.70
2019-03-18T13:16:21.144Z,0.90
2019-03-18T13:18:47.776Z,0.50
2019-03-18T13:21:14.376Z,1.12
2019-03-18T13:23:41.039Z,0.90
2019-03-18T13:26:07.795Z,1.20
2019-03-18T13:28:34.459Z,1.20
2019-03-18T13:31:00.998Z,1.20
2019-03-18T13:33:27.744Z,1.10
2019-03-18T13:35:54.327Z,2.10
2019-03-18T13:38:21.194Z,1.00
2019-03-18T13:40:47.857Z,1.15
2019-03-18T13:43:14.558Z,0.70
2019-03-18T13:45:54.212Z,0.93
2019-03-18T13:48:09.673Z,0.90
2019-03-18T13:50:36.338Z,1.12
2019-03-18T13:53:02.994Z,1.10
2019-03-18T13:55:29.840Z,1.45
2019-03-18T13:57:56.618Z,1.50
2019-03-18T14:00:23.492Z,1.45
2019-03-18T14:02:50.245Z,1.30
2019-03-18T14:05:16.902Z,1.22
2019-03-18T14:07:43.523Z,1.30
2019-03-18T14:10:10.157Z,1.25
2019-03-18T14:12:37.180Z,1.20
2019-03-18T14:15:04.239Z,1.75
2019-03-18T14:17:30.954Z,1.30
2019-03-18T14:20:00.562Z,1.32
2019-03-18T14:22:26.182Z,1.27
2019-03-18T14:24:52.952Z,1.47
2019-03-18T14:27:19.714Z,1.12
2019-03-18T14:29:46.473Z,0.62
2019-03-18T14:32:13.143Z,1.47
2019-03-18T14:34:40.216Z,0.82
2019-03-18T14:37:06.961Z,0.88
2019-03-18T14:39:33.734Z,0.80
2019-03-18T14:42:00.578Z,1.10
2019-03-18T14:44:27.456Z,1.17
2019-03-18T14:46:54.296Z,0.80
2019-03-18T14:49:21.067Z,1.60
2019-03-18T14:51:47.862Z,1.10
2019-03-18T14:54:14.616Z,1.20
2019-03-18T14:56:41.455Z,1.60
2019-03-18T14:59:08.141Z,1.00
2019-03-18T15:01:35.018Z,1.27
2019-03-18T15:04:01.843Z,1.20
2019-03-18T15:06:28.535Z,3.10
2019-03-18T15:08:55.399Z,1.82
2019-03-18T15:11:25.020Z,1.15
2019-03-18T15:13:51.671Z,1.35
2019-03-18T15:16:18.438Z,1.60
2019-03-18T15:18:45.226Z,1.22
2019-03-18T15:21:11.970Z,1.40
2019-03-18T15:23:38.838Z,1.00
2019-03-18T15:26:06.014Z,0.80
2019-03-18T15:28:32.766Z,1.00
2019-03-18T15:30:59.444Z,0.70
2019-03-18T15:33:26.257Z,0.78
2019-03-18T15:35:52.974Z,0.70
2019-03-18T15:38:19.603Z,1.40
2019-03-18T15:40:46.744Z,2.20
2019-03-18T15:43:13.563Z,1.27
2019-03-18T15:45:40.472Z,1.17
2019-03-18T15:48:07.043Z,0.78
2019-03-18T15:50:33.963Z,1.15
2019-03-18T15:53:00.818Z,1.05
2019-03-18T15:55:27.482Z,1.10
2019-03-18T15:57:54.202Z,1.40
2019-03-18T16:00:20.916Z,1.37
2019-03-18T16:02:47.765Z,1.57
2019-03-18T16:05:14.311Z,1.87
2019-03-18T16:07:41.077Z,2.20
2019-03-18T16:10:09.937Z,3.20
2019-03-18T16:12:36.736Z,1.77
2019-03-18T16:15:03.349Z,1.65
2019-03-18T16:17:30.309Z,0.90
2019-03-18T16:19:57.029Z,0.80
2019-03-18T16:22:24.044Z,1.00
2019-03-18T16:24:51.280Z,0.90
2019-03-18T16:27:17.920Z,1.40
2019-03-18T16:29:44.440Z,1.80
2019-03-18T16:32:11.867Z,2.15
2019-03-18T16:34:38.641Z,1.85
2019-03-18T16:37:05.468Z,1.30
2019-03-18T16:39:32.149Z,1.82
2019-03-18T16:41:58.918Z,3.72
2019-03-18T16:44:25.578Z,2.72
2019-03-18T16:46:52.459Z,1.17
2019-03-18T16:49:19.413Z,1.20
2019-03-18T16:51:46.210Z,1.27
2019-03-18T16:54:12.843Z,1.50
2019-03-18T16:56:41.596Z,1.50
2019-03-18T16:59:08.309Z,1.30
2019-03-18T17:01:34.939Z,1.40
2019-03-18T17:04:01.505Z,1.35
2019-03-18T17:06:28.158Z,2.55
2019-03-18T17:08:54.749Z,4.15
2019-03-18T17:11:21.387Z,1.90
2019-03-18T17:13:48.060Z,1.50
2019-03-18T17:16:14.817Z,1.75
2019-03-18T17:18:41.857Z,7.05
2019-03-18T17:21:08.579Z,7.92
2019-03-18T17:23:35.254Z,5.50
2019-03-18T17:26:02.020Z,3.60
2019-03-18T17:28:28.638Z,2.90
2019-03-18T17:30:55.293Z,2.58
2019-03-18T17:33:22.067Z,2.17
2019-03-18T17:35:48.827Z,2.10
2019-03-18T17:38:15.733Z,1.80
2019-03-18T17:40:42.457Z,1.95
2019-03-18T17:43:09.022Z,2.52
2019-03-18T17:45:35.654Z,2.00
2019-03-18T17:48:02.434Z,1.60
2019-03-18T17:50:29.174Z,1.90
2019-03-18T17:53:02.992Z,4.10
2019-03-18T17:55:24.240Z,3.70
2019-03-18T17:57:50.928Z,3.75
2019-03-18T18:00:17.679Z,2.58
2019-03-18T18:02:44.440Z,3.60
2019-03-18T18:05:11.220Z,3.50
2019-03-18T18:07:38.141Z,2.75
2019-03-18T18:10:04.936Z,3.58
2019-03-18T18:12:31.686Z,3.27
2019-03-18T18:14:59.127Z,3.42
2019-03-18T18:17:26.068Z,4.35
2019-03-18T18:19:52.590Z,5.28
2019-03-18T18:22:19.250Z,3.85
2019-03-18T18:24:45.889Z,3.22
2019-03-18T18:27:12.769Z,3.20
2019-03-18T18:29:39.409Z,3.50
2019-03-18T18:32:05.990Z,5.47
2019-03-18T18:34:32.618Z,5.55
2019-03-18T18:36:59.318Z,5.28
2019-03-18T18:39:26.174Z,4.78
2019-03-18T18:41:52.733Z,5.83
2019-03-18T18:44:19.492Z,5.65
2019-03-18T18:46:46.176Z,5.28
2019-03-18T18:49:12.923Z,6.90
2019-03-18T18:51:39.593Z,5.97
2019-03-18T18:54:06.217Z,5.08
2019-03-18T18:56:32.807Z,5.60
2019-03-18T18:58:59.461Z,6.17
2019-03-18T19:01:26.215Z,6.12
2019-03-18T19:03:52.781Z,6.87
2019-03-18T19:06:19.387Z,5.15
2019-03-18T19:08:46.116Z,5.42
2019-03-18T19:11:12.654Z,6.50
2019-03-18T19:13:39.335Z,5.85
2019-03-18T19:16:06.191Z,6.22
2019-03-18T19:18:37.814Z,7.53
2019-03-18T19:21:01.328Z,7.58
2019-03-18T19:23:37.286Z,8.05
2019-03-18T19:25:56.446Z,7.95
2019-03-18T19:28:23.037Z,6.80
2019-03-18T19:30:49.698Z,9.33
2019-03-18T19:33:16.297Z,7.20
2019-03-18T19:35:42.819Z,6.95
2019-03-18T19:38:12.255Z,8.50
2019-03-18T19:40:38.915Z,6.83
2019-03-18T19:43:05.494Z,7.00
2019-03-18T19:45:32.134Z,5.50
2019-03-18T19:47:58.914Z,6.35
2019-03-18T19:50:25.701Z,6.17
2019-03-18T19:52:52.336Z,5.58
2019-03-18T19:55:18.955Z,6.75
2019-03-18T19:57:45.656Z,6.50
2019-03-18T20:00:12.314Z,6.33
2019-03-18T20:02:38.978Z,5.92
2019-03-18T20:05:14.524Z,6.60
2019-03-18T20:07:34.102Z,6.70
2019-03-18T20:10:00.801Z,6.22
2019-03-18T20:12:27.657Z,7.45
2019-03-18T20:14:54.529Z,7.80
2019-03-18T20:17:21.880Z,7.78
2019-03-18T20:19:48.537Z,6.28
2019-03-18T20:22:15.334Z,7.15
2019-03-18T20:24:42.095Z,6.45
2019-03-18T20:27:08.880Z,6.53
2019-03-18T20:29:35.412Z,7.15
2019-03-18T20:32:02.064Z,7.33
2019-03-18T20:34:28.803Z,8.63
2019-03-18T20:36:55.572Z,7.83
2019-03-18T20:39:22.348Z,8.20
2019-03-18T20:41:49.007Z,8.05
2019-03-18T20:44:15.893Z,8.73
2019-03-18T20:46:42.534Z,7.72
2019-03-18T20:49:09.223Z,7.15
2019-03-18T20:51:36.057Z,6.65
2019-03-18T20:54:11.647Z,6.72
2019-03-18T20:56:31.118Z,6.80
2019-03-18T20:58:57.776Z,6.70
2019-03-18T21:01:24.346Z,6.70
2019-03-18T21:03:50.925Z,5.83
2019-03-18T21:06:17.656Z,6.05
2019-03-18T21:08:44.361Z,7.25
2019-03-18T21:11:10.958Z,7.45
2019-03-18T21:13:37.733Z,7.35
2019-03-18T21:16:04.436Z,7.78
2019-03-18T21:18:31.039Z,8.13
2019-03-18T21:20:57.714Z,8.15
2019-03-18T21:23:24.466Z,8.63
2019-03-18T21:25:51.258Z,7.90
